Shady Shores, Texas
Current Conditions -  °F | °C
As of 9:53 PM on Thursday 18 Dec 2014 (Local Time) from KDTO Reporting Station
Haze Haze  
Wind Chill: 40°   Ceiling: 600
Heat Index: 45°   Visibility: 6mi
Dew Point: 43°   Wind: 9mph
Humidity: 93%   Direction: 40°NE
Pressure: 30.17"   Gusts: NA
Location:  33.1922°N, 97.124°W
Report Text: KDTO 190353Z 04008KT 6SM BR OVC006 07/06 A3017 RMK AO2 SLP218 T00720061
Loading
Personal Weather Stations






























Interactive Weather Map New forecast layout! Learn more

10-Day Weather Forecast

Advertisements
Track Severe Weather on mobile